Jp Tsubaki — JD2817 — position and weather

sailwx.info

Track history (hours):
 
Tides and Currents Weather Stations Pressure Air Temp Water Temp Dewpoint Dewpoint Depression Visibility Wind Speed Wind Dir Waves Ship Positions

Jp Tsubaki

Last reported at 2014-Nov-22 02:31 UTC. Time now 2014-Nov-22 03:04 UTC.
Position N 35°24' E 139°39'.

Length 115 m; draft 4.4 m.

Type: Cargo ship. MMSI: 431000734.

Date/timePositionNaut miles runAvg speedWind from/ knotsBaromVisibWave heightAir tempDewpointWater temp
2014-Nov-22 02:31N 35°24' E 139°39'0 0.0
2014-Nov-22 01:31N 35°24' E 139°39'0 0.0
2014-Nov-22 00:31N 35°24' E 139°39'0 0.0
2014-Nov-21 23:31N 35°24' E 139°39'0 0.0
2014-Nov-21 22:31N 35°24' E 139°39'0 0.0
2014-Nov-21 21:31N 35°24' E 139°39'0 0.0
2014-Nov-21 20:31N 35°24' E 139°39'0 0.0
2014-Nov-21 19:31N 35°24' E 139°39'0 0.0
2014-Nov-21 18:31N 35°24' E 139°39'0 0.0
2014-Nov-21 17:31N 35°24' E 139°39'0 0.0
2014-Nov-21 16:28N 35°24' E 139°39'0 0.0
2014-Nov-21 15:28N 35°24' E 139°39'0 0.0
2014-Nov-21 14:31N 35°24' E 139°39'0 0.0
2014-Nov-21 13:34N 35°24' E 139°39'7 6.6
2014-Nov-21 12:34N 35°27' E 139°46'4 3.6
2014-Nov-21 11:34N 35°30' E 139°43'0 0.0
2014-Nov-21 10:31N 35°30' E 139°43'0 0.0
2014-Nov-21 09:28N 35°30' E 139°43'0 0.0
2014-Nov-21 08:31N 35°30' E 139°43'0 0.0
2014-Nov-21 07:28N 35°30' E 139°43'0 0.0
2014-Nov-21 06:31N 35°30' E 139°43'1 1.1
2014-Nov-21 05:34N 35°29' E 139°42'6 5.7
2014-Nov-21 04:34N 35°24' E 139°39'0 0.0
2014-Nov-21 03:32N 35°24' E 139°39'0 0.0
2014-Nov-21 02:32N 35°24' E 139°39'0 0.0
2014-Nov-21 01:32N 35°24' E 139°39'0 0.0
2014-Nov-21 00:32N 35°24' E 139°39'0 0.0
2014-Nov-20 23:32N 35°24' E 139°39'0 0.0
2014-Nov-20 22:29N 35°24' E 139°39'0 0.0
2014-Nov-20 21:32N 35°24' E 139°39'0 0.0
2014-Nov-20 20:32N 35°24' E 139°39'0 0.0
2014-Nov-20 19:32N 35°24' E 139°39'0 0.0
2014-Nov-20 18:32N 35°24' E 139°39'0 0.0
2014-Nov-20 17:32N 35°24' E 139°39'0 0.0
2014-Nov-20 16:32N 35°24' E 139°39'0 0.0
2014-Nov-20 15:32N 35°24' E 139°39'1 0.7
2014-Nov-20 14:33N 35°24' E 139°39'9 9.3
2014-Nov-20 13:34N 35°30' E 139°47'4 3.6
2014-Nov-20 12:33N 35°30' E 139°43'0 0.0
2014-Nov-20 11:33N 35°30' E 139°43'0 0.0
2014-Nov-20 10:32N 35°30' E 139°43'0 0.0
2014-Nov-20 09:32N 35°30' E 139°43'0 0.0
2014-Nov-20 08:32N 35°30' E 139°43'0 0.0
2014-Nov-20 07:32N 35°30' E 139°43'0 0.0
2014-Nov-20 06:32N 35°30' E 139°43'1 1.0
2014-Nov-20 05:34N 35°29' E 139°42'6 5.5
2014-Nov-20 04:34N 35°24' E 139°38'0 0.0
2014-Nov-20 03:32N 35°24' E 139°38'0 0.0
2014-Nov-20 02:32N 35°24' E 139°39'0 0.0
2014-Nov-20 01:32N 35°24' E 139°38'0 0.0
2014-Nov-20 00:29N 35°24' E 139°38'0 0.0
2014-Nov-19 18:14N 35°24' E 139°38'0 0.0
2014-Nov-19 17:32N 35°24' E 139°38'0 0.0
2014-Nov-19 16:32N 35°24' E 139°39'0 0.0
2014-Nov-19 15:32N 35°24' E 139°38'0 0.0
2014-Nov-19 14:32N 35°24' E 139°38'0 0.0
2014-Nov-19 13:29N 35°24' E 139°38'0 0.0
2014-Nov-19 12:23N 35°24' E 139°38'0 0.0
2014-Nov-19 11:29N 35°24' E 139°38'0 0.0
2014-Nov-19 10:23N 35°24' E 139°38'0 0.0
2014-Nov-19 09:29N 35°24' E 139°38'0 0.0
2014-Nov-19 08:29N 35°24' E 139°38'0 0.0
2014-Nov-19 07:32N 35°24' E 139°38'0 0.1
2014-Nov-19 06:33N 35°24' E 139°39'7 6.6
2014-Nov-19 05:33N 35°27' E 139°46'3 3.4
2014-Nov-19 04:33N 35°30' E 139°43'0 0.0
2014-Nov-19 03:32N 35°30' E 139°43'0 0.0
2014-Nov-19 02:32N 35°30' E 139°43'0 0.0
2014-Nov-19 01:32N 35°30' E 139°43'0 0.0
2014-Nov-19 00:32N 35°30' E 139°43'0 0.0
2014-Nov-18 23:32N 35°30' E 139°43'0 0.0
2014-Nov-18 22:33N 35°30' E 139°43'6 6.0
2014-Nov-18 21:33N 35°24' E 139°44'1 1.4
2014-Nov-18 20:33N 35°22' E 139°44'0 0.0
2014-Nov-18 19:33N 35°22' E 139°44'0 0.0
2014-Nov-18 18:33N 35°22' E 139°44'0 0.0
2014-Nov-18 17:33N 35°22' E 139°44'0 0.1
2014-Nov-18 16:33N 35°22' E 139°44'0 0.1
2014-Nov-18 15:33N 35°22' E 139°44'0 0.0
2014-Nov-18 14:33N 35°22' E 139°44'0 0.0
2014-Nov-18 13:33N 35°22' E 139°44'5 4.9
2014-Nov-18 12:33N 35°24' E 139°39'0 0.0
2014-Nov-18 11:33N 35°24' E 139°39'0 0.0
2014-Nov-18 10:33N 35°24' E 139°39'0 0.0
2014-Nov-18 09:33N 35°24' E 139°39'0 0.0
2014-Nov-18 08:30N 35°24' E 139°39'0 0.0
2014-Nov-18 07:24N 35°24' E 139°39'0 0.0
2014-Nov-18 06:33N 35°24' E 139°39'0 0.0
2014-Nov-18 05:30N 35°24' E 139°39'0 0.1
2014-Nov-18 04:33N 35°24' E 139°39'5 4.7
2014-Nov-18 03:33N 35°22' E 139°44'0 0.2
2014-Nov-18 02:33N 35°22' E 139°44'0 0.0
2014-Nov-18 01:33N 35°22' E 139°44'0 0.0
2014-Nov-18 00:33N 35°22' E 139°44'0 0.0
2014-Nov-17 23:33N 35°22' E 139°44'0 0.0
2014-Nov-17 22:30N 35°22' E 139°44'0 0.0
2014-Nov-17 21:33N 35°22' E 139°44'0 0.0
2014-Nov-17 20:33N 35°22' E 139°44'0 0.2
2014-Nov-17 19:34N 35°22' E 139°43'4 3.7
2014-Nov-17 18:34N 35°24' E 139°40'0 0.0
2014-Nov-17 17:31N 35°24' E 139°40'0 0.0
2014-Nov-17 16:31N 35°24' E 139°40'0 0.0
2014-Nov-17 15:31N 35°24' E 139°40'0 0.0
2014-Nov-17 14:31N 35°24' E 139°40'0 0.0
2014-Nov-17 13:31N 35°24' E 139°40'1 1.2
2014-Nov-17 12:34N 35°24' E 139°39'0 0.0
2014-Nov-17 11:28N 35°24' E 139°39'0 0.0
2014-Nov-17 10:31N 35°24' E 139°39'0 0.0
2014-Nov-17 09:28N 35°24' E 139°39'0 0.1
2014-Nov-17 08:31N 35°24' E 139°39'0 0.1
2014-Nov-17 07:28N 35°24' E 139°39'0 0.1
2014-Nov-17 06:33N 35°24' E 139°38'8 7.9
2014-Nov-17 05:34N 35°28' E 139°47'3 3.3
2014-Nov-17 04:33N 35°30' E 139°43'0 0.0
2014-Nov-17 03:33N 35°30' E 139°43'0 0.0
2014-Nov-17 02:33N 35°30' E 139°43'0 0.0
2014-Nov-17 01:33N 35°30' E 139°43'0 0.0
2014-Nov-17 00:33N 35°30' E 139°43'0 0.0
2014-Nov-16 23:33N 35°30' E 139°43'1 0.6
2014-Nov-16 22:33N 35°29' E 139°43'5 4.7
2014-Nov-16 21:33N 35°25' E 139°44'2 2.0
2014-Nov-16 20:32N 35°23' E 139°44'0 0.0
2014-Nov-16 19:32N 35°23' E 139°44'0 0.0
2014-Nov-16 18:32N 35°23' E 139°44'0 0.0
2014-Nov-16 17:32N 35°23' E 139°44'0 0.0
2014-Nov-16 16:32N 35°23' E 139°44'0 0.0
2014-Nov-16 15:32N 35°23' E 139°44'0 0.1
2014-Nov-16 14:32N 35°23' E 139°44'0 0.0
2014-Nov-16 13:32N 35°23' E 139°44'5 4.7
2014-Nov-16 12:33N 35°24' E 139°39'0 0.0
2014-Nov-16 11:32N 35°24' E 139°39'0 0.0
2014-Nov-16 10:32N 35°24' E 139°39'0 0.0
2014-Nov-16 09:32N 35°24' E 139°39'0 0.0
2014-Nov-16 08:32N 35°24' E 139°39'0 0.0
2014-Nov-16 07:23N 35°24' E 139°39'0 0.0
2014-Nov-16 06:34N 35°24' E 139°39'7 7.0
2014-Nov-16 05:34N 35°27' E 139°46'4 3.6
2014-Nov-16 04:33N 35°30' E 139°43'0 0.0
2014-Nov-16 03:34N 35°30' E 139°43'0 0.0
2014-Nov-16 02:34N 35°30' E 139°43'0 0.0
2014-Nov-16 01:33N 35°30' E 139°43'0 0.0
2014-Nov-16 00:33N 35°30' E 139°43'0 0.0
2014-Nov-15 23:33N 35°30' E 139°43'0 0.0
2014-Nov-15 22:33N 35°30' E 139°43'0 0.0
2014-Nov-15 21:33N 35°30' E 139°43'0 0.0
2014-Nov-15 20:33N 35°30' E 139°43'0 0.0
2014-Nov-15 19:33N 35°30' E 139°43'0 0.0
2014-Nov-15 18:33N 35°30' E 139°43'0 0.0
2014-Nov-15 17:33N 35°30' E 139°43'0 0.0
2014-Nov-15 16:33N 35°30' E 139°43'0 0.0
2014-Nov-15 15:33N 35°30' E 139°43'0 0.0
2014-Nov-15 14:33N 35°30' E 139°43'0 0.0
2014-Nov-15 13:33N 35°30' E 139°43'0 0.0
2014-Nov-15 12:33N 35°30' E 139°43'0 0.0
2014-Nov-15 11:33N 35°30' E 139°43'0 0.0
2014-Nov-15 10:33N 35°30' E 139°43'0 0.0
2014-Nov-15 09:33N 35°30' E 139°43'5 5.1
2014-Nov-15 08:33N 35°25' E 139°42'3 3.2
2014-Nov-15 07:32N 35°24' E 139°39'0 0.0
2014-Nov-15 06:32N 35°24' E 139°39'0 0.0
2014-Nov-15 05:32N 35°24' E 139°39'0 0.0
2014-Nov-15 04:32N 35°24' E 139°39'0 0.0
2014-Nov-15 03:32N 35°24' E 139°39'0 0.0
2014-Nov-15 02:32N 35°24' E 139°39'0 0.0
2014-Nov-15 01:23N 35°24' E 139°39'0 0.0
2014-Nov-15 00:32N 35°24' E 139°39'0 0.0
2014-Nov-14 23:32N 35°24' E 139°39'0 0.0
2014-Nov-14 22:32N 35°24' E 139°39'0 0.0
2014-Nov-14 21:29N 35°24' E 139°39'0 0.0
2014-Nov-14 20:32N 35°24' E 139°39'0 0.0
2014-Nov-14 19:32N 35°24' E 139°39'0 0.0
2014-Nov-14 18:29N 35°24' E 139°39'0 0.0
2014-Nov-14 17:32N 35°24' E 139°39'0 0.0
2014-Nov-14 16:32N 35°24' E 139°39'0 0.0
2014-Nov-14 15:32N 35°24' E 139°39'0 0.0
2014-Nov-14 14:29N 35°24' E 139°39'3 1.5
2014-Nov-14 12:34N 35°24' E 139°42'7 6.7
2014-Nov-14 11:34N 35°30' E 139°45'1 1.3
2014-Nov-14 10:34N 35°30' E 139°43'0 0.0
2014-Nov-14 09:31N 35°30' E 139°43'0 0.0
2014-Nov-14 08:31N 35°30' E 139°43'0 0.0
2014-Nov-14 07:31N 35°30' E 139°43'0 0.0
2014-Nov-14 06:31N 35°30' E 139°43'0 0.0
2014-Nov-14 05:31N 35°30' E 139°43'2 1.7
2014-Nov-14 04:33N 35°28' E 139°42'5 5.1
2014-Nov-14 03:33N 35°24' E 139°39'0 0.0
2014-Nov-14 02:32N 35°24' E 139°39'0 0.0
2014-Nov-14 01:26N 35°24' E 139°39'0 0.0
2014-Nov-14 00:29N 35°24' E 139°39'0 0.0
2014-Nov-13 23:29N 35°24' E 139°39'0 0.0
2014-Nov-13 22:29N 35°24' E 139°39'0 0.0
2014-Nov-13 21:29N 35°24' E 139°39'0 0.0
2014-Nov-13 20:23N 35°24' E 139°39'0 0.0
2014-Nov-13 19:29N 35°24' E 139°39'0 0.0
2014-Nov-13 18:29N 35°24' E 139°39'0 0.0
2014-Nov-13 17:29N 35°24' E 139°39'0 0.0
2014-Nov-13 16:29N 35°24' E 139°39'0 0.0
2014-Nov-13 15:29N 35°24' E 139°39'0 0.0
2014-Nov-13 14:29N 35°24' E 139°39'0 0.0
2014-Nov-13 13:29N 35°24' E 139°39'0 0.0
2014-Nov-13 12:23N 35°24' E 139°39'0 0.0
2014-Nov-13 11:33N 35°24' E 139°39'6 6.4
2014-Nov-13 10:33N 35°27' E 139°46'3 3.4
2014-Nov-13 09:33N 35°30' E 139°43'0 0.0
2014-Nov-13 08:31N 35°30' E 139°43'0 0.0
2014-Nov-13 07:31N 35°30' E 139°43'0 0.0
2014-Nov-13 06:25N 35°30' E 139°43'0 0.0
2014-Nov-13 05:31N 35°30' E 139°43'0 0.0
2014-Nov-13 04:31N 35°30' E 139°43'2 2.3
2014-Nov-13 03:33N 35°28' E 139°43'5 0.5
2014-Nov-12 18:16N 35°24' E 139°39'0 0.0
2014-Nov-12 17:25N 35°24' E 139°39'0 0.0
2014-Nov-12 16:28N 35°24' E 139°39'0 0.0
2014-Nov-12 15:31N 35°24' E 139°39'0 0.0
2014-Nov-12 14:27N 35°24' E 139°39'1 1.2
2014-Nov-12 13:33N 35°24' E 139°40'9 8.8
2014-Nov-12 12:33N 35°30' E 139°47'3 3.0
2014-Nov-12 11:33N 35°30' E 139°43'0 0.0
2014-Nov-12 10:31N 35°30' E 139°43'0 0.0
2014-Nov-12 09:28N 35°30' E 139°43'0 0.0
2014-Nov-12 08:31N 35°30' E 139°43'0 0.0
2014-Nov-12 07:31N 35°30' E 139°43'0 0.0
2014-Nov-12 06:31N 35°30' E 139°43'3 2.8
2014-Nov-12 05:33N 35°27' E 139°43'5 4.5
2014-Nov-12 04:31N 35°24' E 139°39'0 0.0
2014-Nov-12 03:34N 35°24' E 139°39'  
Track history (hours):
 
Tides and Currents Weather Stations Pressure Air Temp Water Temp Dewpoint Dewpoint Depression Visibility Wind Speed Wind Dir Waves Ship Positions

Jp Tsubaki

Last reported at 2014-Nov-22 02:31 UTC. Time now 2014-Nov-22 03:04 UTC.
Position N 35°24' E 139°39'.

Length 115 m; draft 4.4 m.

Type: Cargo ship. MMSI: 431000734.

Date/timePositionNaut miles runAvg speedWind from/ knotsBaromVisibWave heightAir tempDewpointWater temp
2014-Nov-22 02:31N 35°24' E 139°39'0 0.0
2014-Nov-22 01:31N 35°24' E 139°39'0 0.0
2014-Nov-22 00:31N 35°24' E 139°39'0 0.0
2014-Nov-21 23:31N 35°24' E 139°39'0 0.0
2014-Nov-21 22:31N 35°24' E 139°39'0 0.0
2014-Nov-21 21:31N 35°24' E 139°39'0 0.0
2014-Nov-21 20:31N 35°24' E 139°39'0 0.0
2014-Nov-21 19:31N 35°24' E 139°39'0 0.0
2014-Nov-21 18:31N 35°24' E 139°39'0 0.0
2014-Nov-21 17:31N 35°24' E 139°39'0 0.0
2014-Nov-21 16:28N 35°24' E 139°39'0 0.0
2014-Nov-21 15:28N 35°24' E 139°39'0 0.0
2014-Nov-21 14:31N 35°24' E 139°39'0 0.0
2014-Nov-21 13:34N 35°24' E 139°39'7 6.6
2014-Nov-21 12:34N 35°27' E 139°46'4 3.6
2014-Nov-21 11:34N 35°30' E 139°43'0 0.0
2014-Nov-21 10:31N 35°30' E 139°43'0 0.0
2014-Nov-21 09:28N 35°30' E 139°43'0 0.0
2014-Nov-21 08:31N 35°30' E 139°43'0 0.0
2014-Nov-21 07:28N 35°30' E 139°43'0 0.0
2014-Nov-21 06:31N 35°30' E 139°43'1 1.1
2014-Nov-21 05:34N 35°29' E 139°42'6 5.7
2014-Nov-21 04:34N 35°24' E 139°39'0 0.0
2014-Nov-21 03:32N 35°24' E 139°39'0 0.0
2014-Nov-21 02:32N 35°24' E 139°39'0 0.0
2014-Nov-21 01:32N 35°24' E 139°39'0 0.0
2014-Nov-21 00:32N 35°24' E 139°39'0 0.0
2014-Nov-20 23:32N 35°24' E 139°39'0 0.0
2014-Nov-20 22:29N 35°24' E 139°39'0 0.0
2014-Nov-20 21:32N 35°24' E 139°39'0 0.0
2014-Nov-20 20:32N 35°24' E 139°39'0 0.0
2014-Nov-20 19:32N 35°24' E 139°39'0 0.0
2014-Nov-20 18:32N 35°24' E 139°39'0 0.0
2014-Nov-20 17:32N 35°24' E 139°39'0 0.0
2014-Nov-20 16:32N 35°24' E 139°39'0 0.0
2014-Nov-20 15:32N 35°24' E 139°39'1 0.7
2014-Nov-20 14:33N 35°24' E 139°39'9 9.3
2014-Nov-20 13:34N 35°30' E 139°47'4 3.6
2014-Nov-20 12:33N 35°30' E 139°43'0 0.0
2014-Nov-20 11:33N 35°30' E 139°43'0 0.0
2014-Nov-20 10:32N 35°30' E 139°43'0 0.0
2014-Nov-20 09:32N 35°30' E 139°43'0 0.0
2014-Nov-20 08:32N 35°30' E 139°43'0 0.0
2014-Nov-20 07:32N 35°30' E 139°43'0 0.0
2014-Nov-20 06:32N 35°30' E 139°43'1 1.0
2014-Nov-20 05:34N 35°29' E 139°42'6 5.5
2014-Nov-20 04:34N 35°24' E 139°38'0 0.0
2014-Nov-20 03:32N 35°24' E 139°38'0 0.0
2014-Nov-20 02:32N 35°24' E 139°39'0 0.0
2014-Nov-20 01:32N 35°24' E 139°38'0 0.0
2014-Nov-20 00:29N 35°24' E 139°38'0 0.0
2014-Nov-19 18:14N 35°24' E 139°38'0 0.0
2014-Nov-19 17:32N 35°24' E 139°38'0 0.0
2014-Nov-19 16:32N 35°24' E 139°39'0 0.0
2014-Nov-19 15:32N 35°24' E 139°38'0 0.0
2014-Nov-19 14:32N 35°24' E 139°38'0 0.0
2014-Nov-19 13:29N 35°24' E 139°38'0 0.0
2014-Nov-19 12:23N 35°24' E 139°38'0 0.0
2014-Nov-19 11:29N 35°24' E 139°38'0 0.0
2014-Nov-19 10:23N 35°24' E 139°38'0 0.0
2014-Nov-19 09:29N 35°24' E 139°38'0 0.0
2014-Nov-19 08:29N 35°24' E 139°38'0 0.0
2014-Nov-19 07:32N 35°24' E 139°38'0 0.1
2014-Nov-19 06:33N 35°24' E 139°39'7 6.6
2014-Nov-19 05:33N 35°27' E 139°46'3 3.4
2014-Nov-19 04:33N 35°30' E 139°43'0 0.0
2014-Nov-19 03:32N 35°30' E 139°43'0 0.0
2014-Nov-19 02:32N 35°30' E 139°43'0 0.0
2014-Nov-19 01:32N 35°30' E 139°43'0 0.0
2014-Nov-19 00:32N 35°30' E 139°43'0 0.0
2014-Nov-18 23:32N 35°30' E 139°43'0 0.0
2014-Nov-18 22:33N 35°30' E 139°43'6 6.0
2014-Nov-18 21:33N 35°24' E 139°44'1 1.4
2014-Nov-18 20:33N 35°22' E 139°44'0 0.0
2014-Nov-18 19:33N 35°22' E 139°44'0 0.0
2014-Nov-18 18:33N 35°22' E 139°44'0 0.0
2014-Nov-18 17:33N 35°22' E 139°44'0 0.1
2014-Nov-18 16:33N 35°22' E 139°44'0 0.1
2014-Nov-18 15:33N 35°22' E 139°44'0 0.0
2014-Nov-18 14:33N 35°22' E 139°44'0 0.0
2014-Nov-18 13:33N 35°22' E 139°44'5 4.9
2014-Nov-18 12:33N 35°24' E 139°39'0 0.0
2014-Nov-18 11:33N 35°24' E 139°39'0 0.0
2014-Nov-18 10:33N 35°24' E 139°39'0 0.0
2014-Nov-18 09:33N 35°24' E 139°39'0 0.0
2014-Nov-18 08:30N 35°24' E 139°39'0 0.0
2014-Nov-18 07:24N 35°24' E 139°39'0 0.0
2014-Nov-18 06:33N 35°24' E 139°39'0 0.0
2014-Nov-18 05:30N 35°24' E 139°39'0 0.1
2014-Nov-18 04:33N 35°24' E 139°39'5 4.7
2014-Nov-18 03:33N 35°22' E 139°44'0 0.2
2014-Nov-18 02:33N 35°22' E 139°44'0 0.0
2014-Nov-18 01:33N 35°22' E 139°44'0 0.0
2014-Nov-18 00:33N 35°22' E 139°44'0 0.0
2014-Nov-17 23:33N 35°22' E 139°44'0 0.0
2014-Nov-17 22:30N 35°22' E 139°44'0 0.0
2014-Nov-17 21:33N 35°22' E 139°44'0 0.0
2014-Nov-17 20:33N 35°22' E 139°44'0 0.2
2014-Nov-17 19:34N 35°22' E 139°43'4 3.7
2014-Nov-17 18:34N 35°24' E 139°40'0 0.0
2014-Nov-17 17:31N 35°24' E 139°40'0 0.0
2014-Nov-17 16:31N 35°24' E 139°40'0 0.0
2014-Nov-17 15:31N 35°24' E 139°40'0 0.0
2014-Nov-17 14:31N 35°24' E 139°40'0 0.0
2014-Nov-17 13:31N 35°24' E 139°40'1 1.2
2014-Nov-17 12:34N 35°24' E 139°39'0 0.0
2014-Nov-17 11:28N 35°24' E 139°39'0 0.0
2014-Nov-17 10:31N 35°24' E 139°39'0 0.0
2014-Nov-17 09:28N 35°24' E 139°39'0 0.1
2014-Nov-17 08:31N 35°24' E 139°39'0 0.1
2014-Nov-17 07:28N 35°24' E 139°39'0 0.1
2014-Nov-17 06:33N 35°24' E 139°38'8 7.9
2014-Nov-17 05:34N 35°28' E 139°47'3 3.3
2014-Nov-17 04:33N 35°30' E 139°43'0 0.0
2014-Nov-17 03:33N 35°30' E 139°43'0 0.0
2014-Nov-17 02:33N 35°30' E 139°43'0 0.0
2014-Nov-17 01:33N 35°30' E 139°43'0 0.0
2014-Nov-17 00:33N 35°30' E 139°43'0 0.0
2014-Nov-16 23:33N 35°30' E 139°43'1 0.6
2014-Nov-16 22:33N 35°29' E 139°43'5 4.7
2014-Nov-16 21:33N 35°25' E 139°44'2 2.0
2014-Nov-16 20:32N 35°23' E 139°44'0 0.0
2014-Nov-16 19:32N 35°23' E 139°44'0 0.0
2014-Nov-16 18:32N 35°23' E 139°44'0 0.0
2014-Nov-16 17:32N 35°23' E 139°44'0 0.0
2014-Nov-16 16:32N 35°23' E 139°44'0 0.0
2014-Nov-16 15:32N 35°23' E 139°44'0 0.1
2014-Nov-16 14:32N 35°23' E 139°44'0 0.0
2014-Nov-16 13:32N 35°23' E 139°44'5 4.7
2014-Nov-16 12:33N 35°24' E 139°39'0 0.0
2014-Nov-16 11:32N 35°24' E 139°39'0 0.0
2014-Nov-16 10:32N 35°24' E 139°39'0 0.0
2014-Nov-16 09:32N 35°24' E 139°39'0 0.0
2014-Nov-16 08:32N 35°24' E 139°39'0 0.0
2014-Nov-16 07:23N 35°24' E 139°39'0 0.0
2014-Nov-16 06:34N 35°24' E 139°39'7 7.0
2014-Nov-16 05:34N 35°27' E 139°46'4 3.6
2014-Nov-16 04:33N 35°30' E 139°43'0 0.0
2014-Nov-16 03:34N 35°30' E 139°43'0 0.0
2014-Nov-16 02:34N 35°30' E 139°43'0 0.0
2014-Nov-16 01:33N 35°30' E 139°43'0 0.0
2014-Nov-16 00:33N 35°30' E 139°43'0 0.0
2014-Nov-15 23:33N 35°30' E 139°43'0 0.0
2014-Nov-15 22:33N 35°30' E 139°43'0 0.0
2014-Nov-15 21:33N 35°30' E 139°43'0 0.0
2014-Nov-15 20:33N 35°30' E 139°43'0 0.0
2014-Nov-15 19:33N 35°30' E 139°43'0 0.0
2014-Nov-15 18:33N 35°30' E 139°43'0 0.0
2014-Nov-15 17:33N 35°30' E 139°43'0 0.0
2014-Nov-15 16:33N 35°30' E 139°43'0 0.0
2014-Nov-15 15:33N 35°30' E 139°43'0 0.0
2014-Nov-15 14:33N 35°30' E 139°43'0 0.0
2014-Nov-15 13:33N 35°30' E 139°43'0 0.0
2014-Nov-15 12:33N 35°30' E 139°43'0 0.0
2014-Nov-15 11:33N 35°30' E 139°43'0 0.0
2014-Nov-15 10:33N 35°30' E 139°43'0 0.0
2014-Nov-15 09:33N 35°30' E 139°43'5 5.1
2014-Nov-15 08:33N 35°25' E 139°42'3 3.2
2014-Nov-15 07:32N 35°24' E 139°39'0 0.0
2014-Nov-15 06:32N 35°24' E 139°39'0 0.0
2014-Nov-15 05:32N 35°24' E 139°39'0 0.0
2014-Nov-15 04:32N 35°24' E 139°39'0 0.0
2014-Nov-15 03:32N 35°24' E 139°39'0 0.0
2014-Nov-15 02:32N 35°24' E 139°39'0 0.0
2014-Nov-15 01:23N 35°24' E 139°39'0 0.0
2014-Nov-15 00:32N 35°24' E 139°39'0 0.0
2014-Nov-14 23:32N 35°24' E 139°39'0 0.0
2014-Nov-14 22:32N 35°24' E 139°39'0 0.0
2014-Nov-14 21:29N 35°24' E 139°39'0 0.0
2014-Nov-14 20:32N 35°24' E 139°39'0 0.0
2014-Nov-14 19:32N 35°24' E 139°39'0 0.0
2014-Nov-14 18:29N 35°24' E 139°39'0 0.0
2014-Nov-14 17:32N 35°24' E 139°39'0 0.0
2014-Nov-14 16:32N 35°24' E 139°39'0 0.0
2014-Nov-14 15:32N 35°24' E 139°39'0 0.0
2014-Nov-14 14:29N 35°24' E 139°39'3 1.5
2014-Nov-14 12:34N 35°24' E 139°42'7 6.7
2014-Nov-14 11:34N 35°30' E 139°45'1 1.3
2014-Nov-14 10:34N 35°30' E 139°43'0 0.0
2014-Nov-14 09:31N 35°30' E 139°43'0 0.0
2014-Nov-14 08:31N 35°30' E 139°43'0 0.0
2014-Nov-14 07:31N 35°30' E 139°43'0 0.0
2014-Nov-14 06:31N 35°30' E 139°43'0 0.0
2014-Nov-14 05:31N 35°30' E 139°43'2 1.7
2014-Nov-14 04:33N 35°28' E 139°42'5 5.1
2014-Nov-14 03:33N 35°24' E 139°39'0 0.0
2014-Nov-14 02:32N 35°24' E 139°39'0 0.0
2014-Nov-14 01:26N 35°24' E 139°39'0 0.0
2014-Nov-14 00:29N 35°24' E 139°39'0 0.0
2014-Nov-13 23:29N 35°24' E 139°39'0 0.0
2014-Nov-13 22:29N 35°24' E 139°39'0 0.0
2014-Nov-13 21:29N 35°24' E 139°39'0 0.0
2014-Nov-13 20:23N 35°24' E 139°39'0 0.0
2014-Nov-13 19:29N 35°24' E 139°39'0 0.0
2014-Nov-13 18:29N 35°24' E 139°39'0 0.0
2014-Nov-13 17:29N 35°24' E 139°39'0 0.0
2014-Nov-13 16:29N 35°24' E 139°39'0 0.0
2014-Nov-13 15:29N 35°24' E 139°39'0 0.0
2014-Nov-13 14:29N 35°24' E 139°39'0 0.0
2014-Nov-13 13:29N 35°24' E 139°39'0 0.0
2014-Nov-13 12:23N 35°24' E 139°39'0 0.0
2014-Nov-13 11:33N 35°24' E 139°39'6 6.4
2014-Nov-13 10:33N 35°27' E 139°46'3 3.4
2014-Nov-13 09:33N 35°30' E 139°43'0 0.0
2014-Nov-13 08:31N 35°30' E 139°43'0 0.0
2014-Nov-13 07:31N 35°30' E 139°43'0 0.0
2014-Nov-13 06:25N 35°30' E 139°43'0 0.0
2014-Nov-13 05:31N 35°30' E 139°43'0 0.0
2014-Nov-13 04:31N 35°30' E 139°43'2 2.3
2014-Nov-13 03:33N 35°28' E 139°43'5 0.5
2014-Nov-12 18:16N 35°24' E 139°39'0 0.0
2014-Nov-12 17:25N 35°24' E 139°39'0 0.0
2014-Nov-12 16:28N 35°24' E 139°39'0 0.0
2014-Nov-12 15:31N 35°24' E 139°39'0 0.0
2014-Nov-12 14:27N 35°24' E 139°39'1 1.2
2014-Nov-12 13:33N 35°24' E 139°40'9 8.8
2014-Nov-12 12:33N 35°30' E 139°47'3 3.0
2014-Nov-12 11:33N 35°30' E 139°43'0 0.0
2014-Nov-12 10:31N 35°30' E 139°43'0 0.0
2014-Nov-12 09:28N 35°30' E 139°43'0 0.0
2014-Nov-12 08:31N 35°30' E 139°43'0 0.0
2014-Nov-12 07:31N 35°30' E 139°43'0 0.0
2014-Nov-12 06:31N 35°30' E 139°43'3 2.8
2014-Nov-12 05:33N 35°27' E 139°43'5 4.5
2014-Nov-12 04:31N 35°24' E 139°39'0 0.0
2014-Nov-12 03:34N 35°24' E 139°39'  

Dump ship's entire track history